createdAt,value
2019-05-07T01:21:16.023Z,6.28
2019-05-07T01:23:45.414Z,6.12
2019-05-07T01:26:14.710Z,6.97
2019-05-07T01:28:59.325Z,6.37
2019-05-07T01:34:28.008Z,6.53
2019-05-07T01:36:57.392Z,6.67
2019-05-07T01:39:26.677Z,6.87
2019-05-07T01:41:55.906Z,6.65
2019-05-07T01:44:25.169Z,6.42
2019-05-07T01:46:54.393Z,6.37
2019-05-07T01:49:24.187Z,5.95
2019-05-07T01:51:53.467Z,6.03
2019-05-07T01:54:23.824Z,6.00
2019-05-07T01:56:53.131Z,6.03
2019-05-07T01:59:22.619Z,6.67
2019-05-07T02:01:54.643Z,6.12
2019-05-07T02:04:35.327Z,5.97
2019-05-07T02:07:38.729Z,6.20
2019-05-07T02:10:27.110Z,6.15
2019-05-07T02:12:56.427Z,5.85
2019-05-07T02:15:25.699Z,6.17
2019-05-07T02:17:54.897Z,6.03
2019-05-07T02:20:24.203Z,6.53
2019-05-07T02:22:53.473Z,6.65
2019-05-07T02:25:23.024Z,5.92
2019-05-07T02:27:52.876Z,6.35
2019-05-07T02:30:23.876Z,5.75
2019-05-07T02:32:54.051Z,6.08
2019-05-07T02:35:23.844Z,6.42
2019-05-07T02:38:06.154Z,5.72
2019-05-07T02:40:45.784Z,6.33
2019-05-07T02:43:15.082Z,7.35
2019-05-07T02:46:21.207Z,6.08
2019-05-07T02:48:42.604Z,6.20
2019-05-07T02:51:17.986Z,6.60
2019-05-07T02:54:13.217Z,7.33
2019-05-07T02:56:42.967Z,6.72
2019-05-07T02:59:13.701Z,6.87
2019-05-07T03:01:43.313Z,6.90
2019-05-07T03:04:13.101Z,7.15
2019-05-07T03:06:44.224Z,7.08
2019-05-07T03:09:14.424Z,6.67
2019-05-07T03:11:44.095Z,7.40
2019-05-07T03:14:14.200Z,7.35
2019-05-07T03:16:49.240Z,8.18
2019-05-07T03:19:15.639Z,7.33
2019-05-07T03:21:54.905Z,7.03
2019-05-07T03:24:43.070Z,6.83
2019-05-07T03:27:13.840Z,7.55
2019-05-07T03:29:44.428Z,7.40
2019-05-07T03:32:36.606Z,7.67
2019-05-07T03:35:08.488Z,7.65
2019-05-07T03:37:38.265Z,7.87
2019-05-07T03:40:08.426Z,7.90
2019-05-07T03:42:37.744Z,7.45
2019-05-07T03:45:26.104Z,7.00
2019-05-07T03:48:08.202Z,7.83
2019-05-07T03:50:37.475Z,7.70
2019-05-07T03:53:06.829Z,7.85
2019-05-07T03:55:36.292Z,8.30
2019-05-07T03:58:05.545Z,8.15
2019-05-07T04:00:34.804Z,8.05
2019-05-07T04:03:04.114Z,8.73
2019-05-07T04:05:34.151Z,7.67
2019-05-07T04:08:03.915Z,7.70
2019-05-07T04:10:33.973Z,8.40
2019-05-07T04:13:04.558Z,7.65
2019-05-07T04:15:34.219Z,8.33
2019-05-07T04:18:03.870Z,8.35
2019-05-07T04:20:33.584Z,9.13
2019-05-07T04:23:04.373Z,8.45
2019-05-07T04:25:59.013Z,9.08
2019-05-07T04:28:56.575Z,9.13
2019-05-07T04:31:28.043Z,9.10
2019-05-07T04:33:59.597Z,10.10
2019-05-07T04:36:34.988Z,9.08
2019-05-07T04:39:05.899Z,8.83
2019-05-07T04:41:35.167Z,9.03
2019-05-07T04:44:05.430Z,9.38
2019-05-07T04:46:34.734Z,8.60
2019-05-07T04:49:04.288Z,8.10
2019-05-07T04:52:04.741Z,9.65
2019-05-07T04:54:34.092Z,9.10
2019-05-07T04:57:05.394Z,9.60
2019-05-07T04:59:34.714Z,9.55
2019-05-07T05:02:13.535Z,9.75
2019-05-07T05:04:43.860Z,9.98
2019-05-07T05:07:13.515Z,9.85
2019-05-07T05:09:42.827Z,9.98
2019-05-07T05:12:13.751Z,10.00
2019-05-07T05:14:43.772Z,11.30
2019-05-07T05:17:13.412Z,10.95
2019-05-07T05:19:43.917Z,11.88
2019-05-07T05:22:57.343Z,11.90
2019-05-07T05:25:35.862Z,11.93
2019-05-07T05:28:05.160Z,11.97
2019-05-07T05:30:43.572Z,10.75
2019-05-07T05:33:12.911Z,11.22
2019-05-07T05:35:43.072Z,11.40
2019-05-07T05:38:12.926Z,11.80
2019-05-07T05:40:42.806Z,10.70
2019-05-07T05:43:37.140Z,11.45
2019-05-07T05:46:07.264Z,10.57
2019-05-07T05:48:36.586Z,11.73
2019-05-07T05:51:32.173Z,11.60
2019-05-07T05:54:22.312Z,11.18
2019-05-07T05:56:56.610Z,11.25
2019-05-07T06:00:03.209Z,10.60
2019-05-07T06:03:02.546Z,11.68
2019-05-07T06:05:56.718Z,10.85
2019-05-07T06:08:35.423Z,13.30
2019-05-07T06:11:26.757Z,10.90
2019-05-07T06:14:04.350Z,11.83
2019-05-07T06:16:41.959Z,11.22
2019-05-07T06:19:22.658Z,11.38
2019-05-07T06:22:16.627Z,10.98
2019-05-07T06:24:56.450Z,10.90
2019-05-07T06:27:25.441Z,10.45
2019-05-07T06:29:54.778Z,11.10
2019-05-07T06:32:24.166Z,10.72
2019-05-07T06:34:53.772Z,10.95
2019-05-07T06:37:23.032Z,10.80
2019-05-07T06:40:14.206Z,10.68
2019-05-07T06:42:53.401Z,12.13
2019-05-07T06:45:26.111Z,10.38
2019-05-07T06:47:55.339Z,9.30
2019-05-07T06:50:24.593Z,8.20
2019-05-07T06:52:53.943Z,8.83
2019-05-07T06:55:23.273Z,9.25
2019-05-07T06:57:53.112Z,7.72
2019-05-07T07:00:42.214Z,7.30
2019-05-07T07:03:32.707Z,7.37
2019-05-07T07:06:26.542Z,7.35
2019-05-07T07:09:06.104Z,7.40
2019-05-07T07:11:52.422Z,7.30
2019-05-07T07:14:22.709Z,7.92
2019-05-07T07:16:52.783Z,6.40
2019-05-07T07:19:23.299Z,7.53
2019-05-07T07:21:52.946Z,6.10
2019-05-07T07:24:22.373Z,6.60
2019-05-07T07:26:52.830Z,6.20
2019-05-07T07:29:24.366Z,5.50
2019-05-07T07:31:57.093Z,5.22
2019-05-07T07:34:27.826Z,5.90
2019-05-07T07:37:08.444Z,5.00
2019-05-07T07:39:33.942Z,4.87
2019-05-07T07:42:04.567Z,5.12
2019-05-07T07:44:33.778Z,5.28
2019-05-07T07:47:03.076Z,4.78
2019-05-07T07:49:33.008Z,5.33
2019-05-07T07:52:03.274Z,5.60
2019-05-07T07:54:32.655Z,5.42
2019-05-07T07:57:19.240Z,5.70
2019-05-07T08:00:13.759Z,5.70
2019-05-07T08:02:46.558Z,6.55
2019-05-07T08:05:15.798Z,6.67
2019-05-07T08:07:45.138Z,8.40
2019-05-07T08:10:14.530Z,8.75
2019-05-07T08:12:43.864Z,8.93
2019-05-07T08:15:20.687Z,9.48
2019-05-07T08:17:44.754Z,10.28
2019-05-07T08:20:14.749Z,10.48
2019-05-07T08:22:44.047Z,10.50
2019-05-07T08:25:16.344Z,10.18
2019-05-07T08:27:45.652Z,9.45
2019-05-07T08:30:22.219Z,10.08
2019-05-07T08:32:56.660Z,9.95
2019-05-07T08:38:04.268Z,9.80
2019-05-07T08:40:34.178Z,10.18
2019-05-07T08:43:03.582Z,11.25
2019-05-07T08:46:11.962Z,10.50
2019-05-07T08:48:45.019Z,10.30
2019-05-07T08:51:17.439Z,9.43
2019-05-07T08:53:49.020Z,10.45
2019-05-07T08:56:18.266Z,11.22
2019-05-07T08:58:47.592Z,11.08
2019-05-07T09:01:16.948Z,11.80
2019-05-07T09:03:47.099Z,12.37
2019-05-07T09:06:18.687Z,12.40
2019-05-07T09:08:47.961Z,11.12
2019-05-07T09:11:17.469Z,9.85
2019-05-07T09:13:46.747Z,10.03
2019-05-07T09:16:15.963Z,10.60
2019-05-07T09:18:46.660Z,10.85
2019-05-07T09:21:16.073Z,11.63
2019-05-07T09:23:45.457Z,11.65
2019-05-07T09:26:16.327Z,11.60
2019-05-07T09:29:07.344Z,12.28
2019-05-07T09:31:44.924Z,10.78
2019-05-07T09:34:14.252Z,11.73
2019-05-07T09:36:51.856Z,11.40
2019-05-07T09:39:22.135Z,10.82
2019-05-07T09:41:52.633Z,11.38
2019-05-07T09:44:22.239Z,11.35
2019-05-07T09:46:52.094Z,10.78
2019-05-07T09:49:22.254Z,10.45
2019-05-07T09:51:52.055Z,10.63
2019-05-07T09:54:23.105Z,9.93
2019-05-07T09:56:52.880Z,10.88
2019-05-07T09:59:22.590Z,10.08
2019-05-07T10:01:51.877Z,10.50
2019-05-07T10:04:22.464Z,12.75
2019-05-07T10:06:52.672Z,12.98
2019-05-07T10:09:22.302Z,12.18
2019-05-07T10:11:59.111Z,11.60
2019-05-07T10:14:28.474Z,11.78
2019-05-07T10:17:05.995Z,13.05
2019-05-07T10:19:35.222Z,12.25
2019-05-07T10:22:04.755Z,12.45
2019-05-07T10:24:34.100Z,11.63
2019-05-07T10:27:03.308Z,12.13
2019-05-07T10:29:32.687Z,11.95
2019-05-07T10:32:02.304Z,12.20
2019-05-07T10:34:31.869Z,11.30
2019-05-07T10:37:02.722Z,12.33
2019-05-07T10:39:32.626Z,10.40
2019-05-07T10:42:02.142Z,11.53
2019-05-07T10:44:37.335Z,11.05
2019-05-07T10:47:32.362Z,11.63
2019-05-07T10:53:06.177Z,11.30
2019-05-07T10:55:35.481Z,11.73
2019-05-07T10:58:04.841Z,11.83
2019-05-07T11:00:34.599Z,10.65
2019-05-07T11:03:03.821Z,11.80
2019-05-07T11:05:33.085Z,10.78
2019-05-07T11:08:03.173Z,12.07
2019-05-07T11:10:32.826Z,11.95
2019-05-07T11:13:03.419Z,11.40
2019-05-07T11:15:33.060Z,11.25
2019-05-07T11:18:16.147Z,11.12
2019-05-07T11:20:50.492Z,11.10
2019-05-07T11:23:19.568Z,10.55
2019-05-07T11:25:48.910Z,10.95
2019-05-07T11:28:18.137Z,10.20
2019-05-07T11:30:47.579Z,10.28
2019-05-07T11:33:18.068Z,10.45
2019-05-07T11:35:47.472Z,9.93
2019-05-07T11:38:29.716Z,10.50
2019-05-07T11:40:59.028Z,10.03
2019-05-07T11:43:47.967Z,9.98
2019-05-07T11:46:33.458Z,9.63
2019-05-07T11:49:13.852Z,9.33
2019-05-07T11:51:51.666Z,9.63
2019-05-07T11:54:20.979Z,9.85
2019-05-07T11:56:51.965Z,10.32
2019-05-07T11:59:22.254Z,10.03
2019-05-07T12:01:56.461Z,9.63
2019-05-07T12:04:28.015Z,9.20
2019-05-07T12:06:57.451Z,10.08
2019-05-07T12:09:26.679Z,9.25
2019-05-07T12:11:59.008Z,8.63
2019-05-07T12:14:31.900Z,9.98
2019-05-07T12:16:59.364Z,10.08
2019-05-07T12:19:29.874Z,9.90
2019-05-07T12:21:59.743Z,10.18
2019-05-07T12:24:29.138Z,9.98
2019-05-07T12:26:58.532Z,9.80
2019-05-07T12:29:32.099Z,10.32
2019-05-07T12:32:09.521Z,9.73
2019-05-07T12:34:43.753Z,10.38
2019-05-07T12:37:13.412Z,10.60
2019-05-07T12:39:42.650Z,10.48
2019-05-07T12:42:13.203Z,10.18
2019-05-07T12:44:43.372Z,10.48
2019-05-07T12:47:13.668Z,10.03
2019-05-07T12:49:43.055Z,9.78
2019-05-07T12:52:25.588Z,9.98
2019-05-07T12:55:02.896Z,10.10
2019-05-07T12:57:30.080Z,8.93
2019-05-07T13:00:18.430Z,8.73
2019-05-07T13:03:07.766Z,10.35
2019-05-07T13:05:37.632Z,10.50
2019-05-07T13:08:07.989Z,10.58
2019-05-07T13:10:37.603Z,9.90
2019-05-07T13:13:07.729Z,10.03
2019-05-07T13:15:37.021Z,10.60
2019-05-07T13:18:12.649Z,11.48
2019-05-07T13:20:48.803Z,11.03
2019-05-07T13:23:18.764Z,11.83
2019-05-07T13:25:52.121Z,10.60
2019-05-07T13:28:21.060Z,10.25
2019-05-07T13:30:52.486Z,10.70
2019-05-07T13:33:22.900Z,10.85
2019-05-07T13:35:53.071Z,11.25
2019-05-07T13:38:33.957Z,11.05
2019-05-07T13:41:23.397Z,12.05
2019-05-07T13:44:31.905Z,12.10
2019-05-07T13:47:21.804Z,11.68
2019-05-07T13:49:53.572Z,12.50
2019-05-07T13:52:23.606Z,12.88
2019-05-07T13:54:53.414Z,13.72
2019-05-07T13:57:23.175Z,12.47
2019-05-07T13:59:53.704Z,14.03
2019-05-07T14:02:24.844Z,12.28
2019-05-07T14:04:54.249Z,14.07
2019-05-07T14:07:26.284Z,12.80
2019-05-07T14:09:55.642Z,13.22
2019-05-07T14:12:25.195Z,12.63
2019-05-07T14:15:02.200Z,13.72
2019-05-07T14:17:31.969Z,14.05
2019-05-07T14:20:04.900Z,13.88
2019-05-07T14:22:35.284Z,13.32
2019-05-07T14:25:05.727Z,12.73
2019-05-07T14:27:34.929Z,14.35
2019-05-07T14:30:04.857Z,13.20
2019-05-07T14:32:48.987Z,14.30
2019-05-07T14:35:24.872Z,15.88
2019-05-07T14:38:04.548Z,13.28
2019-05-07T14:40:33.851Z,14.15
2019-05-07T14:43:14.121Z,22.25
2019-05-07T14:45:43.477Z,25.27
2019-05-07T14:48:12.782Z,15.63
2019-05-07T14:50:45.020Z,13.98
2019-05-07T14:53:13.126Z,11.97
2019-05-07T14:55:42.451Z,13.38
2019-05-07T14:58:12.435Z,11.45
2019-05-07T15:00:42.839Z,11.28
2019-05-07T15:03:12.694Z,11.53
2019-05-07T15:05:42.411Z,10.93
2019-05-07T15:08:14.331Z,10.08
2019-05-07T15:10:42.971Z,8.70
2019-05-07T15:13:12.767Z,9.30
2019-05-07T15:15:42.555Z,10.05
2019-05-07T15:18:34.187Z,9.08
2019-05-07T15:21:03.527Z,10.20
2019-05-07T15:23:35.481Z,9.70
2019-05-07T15:26:04.989Z,9.58
2019-05-07T15:28:35.674Z,9.05
2019-05-07T15:31:12.316Z,8.80
2019-05-07T15:33:41.923Z,8.43
2019-05-07T15:36:11.980Z,8.15
2019-05-07T15:38:42.913Z,7.55
2019-05-07T15:41:12.636Z,8.58
2019-05-07T15:43:45.818Z,8.35
2019-05-07T15:46:13.194Z,8.53
2019-05-07T15:48:42.511Z,8.18
2019-05-07T15:51:17.156Z,9.35
2019-05-07T15:53:55.608Z,8.70
2019-05-07T15:56:24.927Z,8.65
2019-05-07T15:58:54.509Z,8.78
2019-05-07T16:01:24.934Z,9.23
2019-05-07T16:03:55.056Z,9.15
2019-05-07T16:06:25.812Z,9.75
2019-05-07T16:08:59.046Z,9.03
2019-05-07T16:11:28.356Z,9.40
2019-05-07T16:14:22.620Z,9.63
2019-05-07T16:16:54.754Z,8.40
2019-05-07T16:19:28.545Z,8.28
2019-05-07T16:22:07.430Z,9.23
2019-05-07T16:29:58.831Z,8.60
2019-05-07T16:32:28.102Z,9.33
2019-05-07T16:34:57.634Z,8.48
2019-05-07T16:37:26.985Z,9.30
2019-05-07T16:39:58.557Z,9.03
2019-05-07T16:42:27.850Z,9.33
2019-05-07T16:44:57.077Z,9.63
2019-05-07T16:47:26.421Z,8.98
2019-05-07T16:49:55.696Z,8.55
2019-05-07T16:52:24.887Z,8.55
2019-05-07T16:54:54.175Z,9.40
2019-05-07T16:57:42.455Z,8.38
2019-05-07T17:00:17.777Z,9.45
2019-05-07T17:02:48.149Z,8.80
2019-05-07T17:05:18.005Z,8.65
2019-05-07T17:07:52.526Z,8.10
2019-05-07T17:10:22.384Z,9.35
2019-05-07T17:12:52.455Z,8.80
2019-05-07T17:15:22.787Z,8.60
2019-05-07T17:17:59.262Z,8.28
2019-05-07T17:20:28.656Z,8.23
2019-05-07T17:22:57.965Z,7.47
2019-05-07T17:25:39.274Z,7.85
2019-05-07T17:28:09.442Z,8.83
2019-05-07T17:30:38.808Z,7.87
2019-05-07T17:33:08.143Z,8.13
2019-05-07T17:35:37.796Z,7.87
2019-05-07T17:38:09.942Z,7.83
2019-05-07T17:40:42.853Z,8.53
2019-05-07T17:43:12.400Z,8.35
2019-05-07T17:45:42.932Z,7.53
2019-05-07T17:48:15.455Z,8.25
2019-05-07T17:51:12.837Z,8.05
2019-05-07T17:53:55.887Z,8.05
2019-05-07T17:56:13.394Z,8.08
2019-05-07T17:58:42.803Z,7.78
2019-05-07T18:01:12.127Z,7.95
2019-05-07T18:03:42.774Z,8.45
2019-05-07T18:06:14.747Z,8.80
2019-05-07T18:08:44.032Z,8.80
2019-05-07T18:11:20.953Z,8.63
2019-05-07T18:13:45.358Z,7.30
2019-05-07T18:16:27.245Z,8.18
2019-05-07T18:18:56.497Z,8.78
2019-05-07T18:21:25.767Z,9.48
2019-05-07T18:23:54.977Z,8.58
2019-05-07T18:26:30.315Z,9.00
2019-05-07T18:28:55.481Z,8.88
2019-05-07T18:31:45.419Z,8.20
2019-05-07T18:34:14.776Z,7.90
2019-05-07T18:36:44.026Z,8.30
2019-05-07T18:39:13.274Z,8.13
2019-05-07T18:41:42.639Z,8.30
2019-05-07T18:44:13.483Z,8.25
2019-05-07T18:46:42.982Z,9.05
2019-05-07T18:49:12.816Z,9.10
2019-05-07T18:51:42.636Z,8.85
2019-05-07T18:54:26.921Z,8.78
2019-05-07T18:56:43.334Z,8.58
2019-05-07T18:59:13.840Z,8.80
2019-05-07T19:01:44.370Z,9.35
2019-05-07T19:04:13.646Z,8.93
2019-05-07T19:06:42.941Z,8.45
2019-05-07T19:09:12.808Z,9.13
2019-05-07T19:11:42.783Z,9.20
2019-05-07T19:14:13.397Z,9.45
2019-05-07T19:16:43.181Z,9.95
2019-05-07T19:19:12.963Z,9.50
2019-05-07T19:21:42.511Z,9.03
2019-05-07T19:24:11.846Z,8.35
2019-05-07T19:26:42.087Z,8.33
2019-05-07T19:29:12.500Z,9.10
2019-05-07T19:31:42.114Z,8.93
2019-05-07T19:34:12.328Z,9.13
2019-05-07T19:36:42.378Z,9.28
2019-05-07T19:39:12.659Z,10.23
2019-05-07T19:41:42.982Z,9.63
2019-05-07T19:44:12.880Z,9.53
2019-05-07T19:46:43.066Z,9.40
2019-05-07T19:49:12.275Z,9.63
2019-05-07T19:51:42.821Z,9.45
2019-05-07T19:54:12.348Z,10.03
2019-05-07T19:56:42.577Z,9.78
2019-05-07T19:59:12.485Z,10.50
2019-05-07T20:01:46.644Z,9.58
2019-05-07T20:04:16.324Z,9.23
2019-05-07T20:06:45.530Z,9.33
2019-05-07T20:09:16.422Z,9.58
2019-05-07T20:11:52.165Z,9.08
2019-05-07T20:14:22.281Z,8.95
2019-05-07T20:16:53.150Z,9.28
2019-05-07T20:19:23.085Z,8.55
2019-05-07T20:21:52.630Z,9.30
2019-05-07T20:24:22.127Z,9.00
2019-05-07T20:26:52.613Z,9.08
2019-05-07T20:29:23.060Z,8.98
2019-05-07T20:31:53.281Z,8.28
2019-05-07T20:34:22.938Z,8.88
2019-05-07T20:36:52.204Z,7.45
2019-05-07T20:39:23.283Z,8.28
2019-05-07T20:41:52.728Z,8.48
2019-05-07T20:44:22.110Z,8.38
2019-05-07T20:46:53.557Z,8.70
2019-05-07T20:49:23.293Z,9.00
2019-05-07T20:51:52.722Z,8.28
2019-05-07T20:54:43.940Z,8.75
2019-05-07T20:57:35.035Z,8.73
2019-05-07T21:00:08.782Z,8.90
2019-05-07T21:02:45.432Z,8.55
2019-05-07T21:05:09.465Z,9.38
2019-05-07T21:07:38.738Z,9.13
2019-05-07T21:10:08.077Z,9.35
2019-05-07T21:12:37.400Z,8.80
2019-05-07T21:15:07.145Z,9.20
2019-05-07T21:17:37.810Z,8.75
2019-05-07T21:20:07.097Z,9.05
2019-05-07T21:22:38.268Z,9.53
2019-05-07T21:25:07.700Z,8.65
2019-05-07T21:27:36.942Z,8.90
2019-05-07T21:30:09.276Z,9.15
2019-05-07T21:32:38.498Z,10.15
2019-05-07T21:35:09.224Z,8.68
2019-05-07T21:37:39.062Z,9.60
2019-05-07T21:40:08.606Z,9.43
2019-05-07T21:42:37.824Z,9.90
2019-05-07T21:45:07.600Z,9.70
2019-05-07T21:47:36.884Z,10.15
2019-05-07T21:50:06.386Z,9.85
2019-05-07T21:52:39.446Z,10.58
2019-05-07T21:55:15.778Z,10.80
2019-05-07T21:58:11.754Z,9.15
2019-05-07T22:01:18.757Z,10.03
2019-05-07T22:03:52.404Z,10.20
2019-05-07T22:06:22.780Z,10.20
2019-05-07T22:08:52.600Z,9.73
2019-05-07T22:11:23.120Z,11.30
2019-05-07T22:13:54.705Z,10.10
2019-05-07T22:16:23.443Z,9.98
2019-05-07T22:18:52.667Z,10.30
2019-05-07T22:21:21.973Z,10.08
2019-05-07T22:23:52.189Z,10.43
2019-05-07T22:26:25.669Z,10.65
2019-05-07T22:28:54.081Z,10.30
2019-05-07T22:31:44.271Z,10.45
2019-05-07T22:34:32.690Z,10.40
2019-05-07T22:37:03.288Z,11.08
2019-05-07T22:39:32.885Z,10.65
2019-05-07T22:42:02.429Z,10.88
2019-05-07T22:44:32.265Z,11.38
2019-05-07T22:47:18.729Z,10.90
2019-05-07T22:49:49.463Z,10.32
2019-05-07T22:52:19.516Z,10.45
2019-05-07T22:54:48.844Z,10.93
2019-05-07T22:57:37.157Z,11.48
2019-05-07T23:00:08.587Z,10.40
2019-05-07T23:02:37.829Z,10.93
2019-05-07T23:05:07.355Z,10.80
2019-05-07T23:07:36.609Z,10.85
2019-05-07T23:10:05.907Z,11.03
2019-05-07T23:12:35.308Z,11.30
2019-05-07T23:15:05.172Z,10.65
2019-05-07T23:17:34.410Z,10.55
2019-05-07T23:20:03.658Z,11.08
2019-05-07T23:22:32.986Z,10.78
2019-05-07T23:25:02.349Z,11.22
2019-05-07T23:27:32.559Z,11.25
2019-05-07T23:30:02.543Z,10.43
2019-05-07T23:32:32.967Z,10.70
2019-05-07T23:35:02.399Z,11.20
2019-05-07T23:37:33.162Z,11.08
2019-05-07T23:40:07.441Z,10.48
2019-05-07T23:42:38.013Z,11.05
2019-05-07T23:45:07.333Z,10.63
2019-05-07T23:47:36.537Z,11.00
2019-05-07T23:50:05.807Z,10.48
2019-05-07T23:52:35.028Z,10.35
2019-05-07T23:55:04.385Z,10.93
2019-05-07T23:57:33.611Z,11.12
